createdAt,value
2022-10-23T00:02:00.283Z,1
2022-10-23T00:12:00.217Z,1
2022-10-23T00:22:00.350Z,1
2022-10-23T00:32:00.221Z,1
2022-10-23T00:42:00.341Z,1
2022-10-23T00:52:00.254Z,1
2022-10-23T01:02:00.554Z,1
2022-10-23T01:12:00.361Z,1
2022-10-23T01:22:00.548Z,1
2022-10-23T01:32:00.422Z,1
2022-10-23T01:42:00.374Z,1
2022-10-23T01:52:00.455Z,1
2022-10-23T02:02:00.486Z,1
2022-10-23T02:12:00.458Z,1
2022-10-23T02:22:00.353Z,1
2022-10-23T02:32:00.456Z,1
2022-10-23T02:42:00.433Z,1
2022-10-23T02:52:00.375Z,1
2022-10-23T03:02:00.357Z,1
2022-10-23T03:12:00.384Z,1
2022-10-23T03:22:00.327Z,1
2022-10-23T03:32:00.426Z,1
2022-10-23T03:42:00.570Z,1
2022-10-23T03:52:00.398Z,1
2022-10-23T04:02:00.694Z,1
2022-10-23T04:12:00.391Z,1
2022-10-23T04:22:00.515Z,1
2022-10-23T04:32:00.388Z,1
2022-10-23T04:42:00.519Z,1
2022-10-23T04:52:00.596Z,1
2022-10-23T05:02:00.572Z,1
2022-10-23T05:12:00.603Z,1
2022-10-23T05:22:00.500Z,1
2022-10-23T05:32:00.584Z,1
2022-10-23T05:42:00.497Z,1
2022-10-23T05:52:00.575Z,1
2022-10-23T06:02:00.672Z,1
2022-10-23T06:12:00.573Z,1
2022-10-23T06:22:00.694Z,1
2022-10-23T06:32:00.602Z,3
2022-10-23T06:42:00.720Z,10
2022-10-23T06:52:00.554Z,26
2022-10-23T07:02:00.688Z,35
2022-10-23T07:12:00.559Z,30
2022-10-23T07:22:00.675Z,47
2022-10-23T07:32:00.547Z,60
2022-10-23T07:42:00.674Z,71
2022-10-23T07:52:00.865Z,69
2022-10-23T08:02:00.731Z,72
2022-10-23T08:12:00.748Z,72
2022-10-23T08:22:00.700Z,74
2022-10-23T08:32:00.763Z,78
2022-10-23T08:42:00.690Z,78
2022-10-23T08:52:00.737Z,80
2022-10-23T09:02:00.939Z,83
2022-10-23T09:12:00.727Z,88
2022-10-23T09:22:00.847Z,88
2022-10-23T09:32:00.751Z,88
2022-10-23T09:42:00.867Z,83
2022-10-23T09:52:00.742Z,92
2022-10-23T10:02:01.046Z,91
2022-10-23T10:12:00.723Z,86
2022-10-23T10:22:00.880Z,92
2022-10-23T10:32:01.253Z,92
2022-10-23T10:42:00.854Z,92
2022-10-23T10:52:00.880Z,94
2022-10-23T11:02:01.194Z,96
2022-10-23T11:12:00.871Z,96
2022-10-23T11:22:00.991Z,96
2022-10-23T11:32:00.905Z,94
2022-10-23T11:42:01.016Z,94
2022-10-23T11:52:00.869Z,94
2022-10-23T12:02:01.040Z,94
2022-10-23T12:12:00.901Z,94
2022-10-23T12:22:01.033Z,94
2022-10-23T12:32:00.924Z,94
2022-10-23T12:42:01.047Z,94
2022-10-23T12:52:00.877Z,96
2022-10-23T13:02:01.125Z,96
2022-10-23T13:12:01.108Z,95
2022-10-23T13:22:01.030Z,96
2022-10-23T13:32:01.086Z,96
2022-10-23T13:42:01.011Z,95
2022-10-23T13:52:01.079Z,94
2022-10-23T14:02:01.148Z,93
2022-10-23T14:12:01.091Z,93
2022-10-23T14:22:01.030Z,93
2022-10-23T14:32:01.111Z,93
2022-10-23T14:42:01.205Z,93
2022-10-23T14:52:01.062Z,93
2022-10-23T15:02:01.213Z,93
2022-10-23T15:12:01.059Z,92
2022-10-23T15:22:01.191Z,90
2022-10-23T15:32:01.058Z,86
2022-10-23T15:42:01.303Z,89
2022-10-23T15:52:01.251Z,90
2022-10-23T16:02:01.296Z,91
2022-10-23T16:12:01.210Z,89
2022-10-23T16:22:01.116Z,85
2022-10-23T16:32:01.185Z,78
2022-10-23T16:42:01.309Z,72
2022-10-23T16:52:01.182Z,66
2022-10-23T17:02:01.400Z,48
2022-10-23T17:12:01.173Z,29
2022-10-23T17:22:01.295Z,5
2022-10-23T17:32:01.170Z,1
2022-10-23T17:42:01.290Z,1
2022-10-23T17:52:01.374Z,1
2022-10-23T18:02:01.393Z,1
2022-10-23T18:12:01.396Z,1
2022-10-23T18:22:01.278Z,1
2022-10-23T18:32:01.360Z,1
2022-10-23T18:42:01.287Z,1
2022-10-23T18:52:01.358Z,1
2022-10-23T19:02:01.353Z,2
2022-10-23T19:12:01.377Z,1
2022-10-23T19:22:01.493Z,1
2022-10-23T19:32:01.556Z,1
2022-10-23T19:42:01.305Z,1
2022-10-23T19:52:01.625Z,1
2022-10-23T20:02:01.626Z,1
2022-10-23T20:12:01.378Z,1
2022-10-23T20:22:01.509Z,1
2022-10-23T20:32:01.402Z,1
2022-10-23T20:42:01.526Z,1
2022-10-23T20:52:01.365Z,1
2022-10-23T21:02:01.632Z,1
2022-10-23T21:12:01.570Z,1
2022-10-23T21:22:01.488Z,1
2022-10-23T21:32:01.581Z,1
2022-10-23T21:42:01.533Z,1
2022-10-23T21:52:01.613Z,1
2022-10-23T22:02:01.667Z,1
2022-10-23T22:12:01.563Z,1
2022-10-23T22:22:01.470Z,1
2022-10-23T22:32:01.548Z,1
2022-10-23T22:42:01.671Z,1
2022-10-23T22:52:01.590Z,1
2022-10-23T23:02:01.711Z,1
2022-10-23T23:12:01.539Z,1
2022-10-23T23:22:01.658Z,1
2022-10-23T23:32:01.538Z,1
2022-10-23T23:42:01.668Z,1
2022-10-23T23:52:01.562Z,1
